createdAt,value
2022-09-24T04:31:08.432Z,12.34
2022-09-24T04:32:08.328Z,12.39
2022-09-24T04:33:08.291Z,12.41
2022-09-24T04:34:08.314Z,12.41
2022-09-24T04:35:08.270Z,12.39
2022-09-24T04:36:08.247Z,12.39
2022-09-24T04:37:08.236Z,12.42
2022-09-24T04:38:08.217Z,12.42
2022-09-24T04:39:08.210Z,12.42
2022-09-24T04:40:08.267Z,12.44
2022-09-24T04:41:08.178Z,12.44
2022-09-24T04:42:08.167Z,12.44
2022-09-24T04:43:08.157Z,12.44
2022-09-24T04:44:15.192Z,12.41
2022-09-24T04:45:08.132Z,12.44
2022-09-24T04:46:08.137Z,12.42
2022-09-24T04:47:08.112Z,12.42
2022-09-24T04:48:08.092Z,12.42
2022-09-24T04:49:08.156Z,12.42
2022-09-24T04:50:08.061Z,12.42
2022-09-24T04:51:08.069Z,12.42
2022-09-24T04:52:08.041Z,12.44
2022-09-24T04:53:08.030Z,12.44
2022-09-24T04:54:08.012Z,12.44
2022-09-24T04:55:08.000Z,12.42
2022-09-24T04:56:07.991Z,12.42
2022-09-24T04:57:07.980Z,12.42
2022-09-24T04:58:07.962Z,12.44
2022-09-24T04:59:08.065Z,12.41
2022-09-24T05:00:07.930Z,12.41
2022-09-24T05:01:07.929Z,12.41
2022-09-24T05:02:09.660Z,12.41
2022-09-24T05:03:07.958Z,12.41
2022-09-24T05:04:07.879Z,12.39
2022-09-24T05:05:07.876Z,12.42
2022-09-24T05:06:07.879Z,12.41
2022-09-24T05:07:07.840Z,12.41
2022-09-24T05:08:07.845Z,12.42
2022-09-24T05:09:11.826Z,12.42
2022-09-24T05:10:07.810Z,12.42
2022-09-24T05:11:07.798Z,12.44
2022-09-24T05:12:07.780Z,12.44
2022-09-24T05:13:07.759Z,12.44
2022-09-24T05:14:07.757Z,12.42
2022-09-24T05:15:07.738Z,12.44
2022-09-24T05:16:07.789Z,12.44
2022-09-24T05:17:07.708Z,12.42
2022-09-24T05:18:07.707Z,12.44
2022-09-24T05:19:07.781Z,12.42
2022-09-24T05:20:07.677Z,12.45
2022-09-24T05:21:07.668Z,12.45
2022-09-24T05:22:07.649Z,12.45
2022-09-24T05:23:07.638Z,12.45
2022-09-24T05:24:07.640Z,12.46
2022-09-24T05:25:07.608Z,12.45
2022-09-24T05:26:07.611Z,12.48
2022-09-24T05:27:07.587Z,12.46
2022-09-24T05:28:07.578Z,12.46
2022-09-24T05:29:07.617Z,12.48
2022-09-24T05:30:07.549Z,12.49
2022-09-24T05:31:07.713Z,12.49
2022-09-24T05:32:07.528Z,12.49
2022-09-24T05:33:07.518Z,12.48
2022-09-24T05:34:07.497Z,12.51
2022-09-24T05:35:07.486Z,12.49
2022-09-24T05:36:07.487Z,12.49
2022-09-24T05:37:07.456Z,12.52
2022-09-24T05:38:07.466Z,12.51
2022-09-24T05:39:07.496Z,12.52
2022-09-24T05:40:07.469Z,12.52
2022-09-24T05:41:07.407Z,12.52
2022-09-24T05:42:07.395Z,12.54
2022-09-24T05:43:07.395Z,12.52
2022-09-24T05:44:07.375Z,12.54
2022-09-24T05:45:07.345Z,12.56
2022-09-24T05:46:07.400Z,12.54
2022-09-24T05:47:07.324Z,12.54
2022-09-24T05:48:07.336Z,12.56
2022-09-24T05:49:07.447Z,12.54
2022-09-24T05:50:07.305Z,12.56
2022-09-24T05:51:07.313Z,12.56
2022-09-24T05:52:07.265Z,12.54
2022-09-24T05:53:07.266Z,12.56
2022-09-24T05:54:07.236Z,12.56
2022-09-24T05:55:07.226Z,12.56
2022-09-24T05:56:07.227Z,12.56
2022-09-24T05:57:07.203Z,12.57
2022-09-24T05:58:07.186Z,12.57
2022-09-24T05:59:07.207Z,12.57
2022-09-24T06:00:07.162Z,12.59
2022-09-24T06:01:07.156Z,12.60
2022-09-24T06:02:07.213Z,12.60
2022-09-24T06:03:07.192Z,12.63
2022-09-24T06:04:09.056Z,12.63
2022-09-24T06:05:07.086Z,12.64
2022-09-24T06:06:07.092Z,12.64
2022-09-24T06:07:07.085Z,12.67
2022-09-24T06:08:07.094Z,12.67
2022-09-24T06:09:07.096Z,12.70
2022-09-24T06:10:07.033Z,12.74
2022-09-24T06:11:07.013Z,12.74
2022-09-24T06:12:07.078Z,12.77
2022-09-24T06:13:06.997Z,12.78
2022-09-24T06:14:06.982Z,12.79
2022-09-24T06:15:06.964Z,12.81
2022-09-24T06:16:06.986Z,12.82
2022-09-24T06:17:06.952Z,12.81
2022-09-24T06:18:06.923Z,12.78
2022-09-24T06:19:07.014Z,12.78
2022-09-24T06:20:06.912Z,12.79
2022-09-24T06:21:07.853Z,12.79
2022-09-24T06:22:06.884Z,12.81
2022-09-24T06:23:06.861Z,12.84
2022-09-24T06:24:06.843Z,12.81
2022-09-24T06:25:06.832Z,12.82
2022-09-24T06:26:06.826Z,12.82
2022-09-24T06:27:06.819Z,12.85
2022-09-24T06:28:06.792Z,12.89
2022-09-24T06:29:06.917Z,12.92
2022-09-24T06:30:06.772Z,12.93
2022-09-24T06:31:06.863Z,12.96
2022-09-24T06:32:06.752Z,12.99
2022-09-24T06:33:06.732Z,13.03
2022-09-24T06:34:06.722Z,13.04
2022-09-24T06:35:06.713Z,13.04
2022-09-24T06:36:06.702Z,13.06
2022-09-24T06:37:06.691Z,13.04
2022-09-24T06:38:06.675Z,13.04
2022-09-24T06:39:06.651Z,13.03
2022-09-24T06:40:06.680Z,13.02
2022-09-24T06:41:06.705Z,13.04
2022-09-24T06:42:06.628Z,13.07
2022-09-24T06:43:06.667Z,13.09
2022-09-24T06:44:06.581Z,13.11
2022-09-24T06:45:06.575Z,13.15
2022-09-24T06:46:06.594Z,13.17
2022-09-24T06:47:06.561Z,13.20
2022-09-24T06:48:06.545Z,13.21
2022-09-24T06:49:06.511Z,13.25
2022-09-24T06:50:06.511Z,13.27
2022-09-24T06:51:06.494Z,13.32
2022-09-24T06:52:06.491Z,13.37
2022-09-24T06:53:06.504Z,13.41
2022-09-24T06:54:06.463Z,13.47
2022-09-24T06:55:06.440Z,13.46
2022-09-24T06:56:06.430Z,13.46
2022-09-24T06:57:06.424Z,13.51
2022-09-24T06:58:06.409Z,13.55
2022-09-24T06:59:06.389Z,13.56
2022-09-24T07:00:06.379Z,13.58
2022-09-24T07:01:06.406Z,13.56
2022-09-24T07:02:06.411Z,13.54
2022-09-24T07:03:06.340Z,13.52
2022-09-24T07:04:06.319Z,13.54
2022-09-24T07:05:06.314Z,13.55
2022-09-24T07:06:06.300Z,13.56
2022-09-24T07:07:06.324Z,13.59
2022-09-24T07:08:06.279Z,13.62
2022-09-24T07:09:06.257Z,13.63
2022-09-24T07:10:06.240Z,13.65
2022-09-24T07:11:06.230Z,13.67
2022-09-24T07:12:06.220Z,13.69
2022-09-24T07:13:06.219Z,13.67
2022-09-24T07:14:06.189Z,13.69
2022-09-24T07:15:06.171Z,13.70
2022-09-24T07:16:06.247Z,13.71
2022-09-24T07:17:06.148Z,13.71
2022-09-24T07:18:06.150Z,13.79
2022-09-24T07:19:06.118Z,13.87
2022-09-24T07:20:06.109Z,13.89
2022-09-24T07:21:06.109Z,13.92
2022-09-24T07:22:06.088Z,13.96
2022-09-24T07:23:06.079Z,14.02
2022-09-24T07:24:06.059Z,14.02
2022-09-24T07:25:06.051Z,14.01
2022-09-24T07:26:06.038Z,14.04
2022-09-24T07:27:06.026Z,14.09
2022-09-24T07:28:06.027Z,14.13
2022-09-24T07:29:06.022Z,14.14
2022-09-24T07:30:05.978Z,14.12
2022-09-24T07:31:06.028Z,14.10
2022-09-24T07:32:05.958Z,14.12
2022-09-24T07:33:05.946Z,14.14
2022-09-24T07:34:06.028Z,14.19
2022-09-24T07:35:05.920Z,14.17
2022-09-24T07:36:05.908Z,14.17
2022-09-24T07:37:05.888Z,14.19
2022-09-24T07:38:05.895Z,14.19
2022-09-24T07:39:05.858Z,14.21
2022-09-24T07:40:05.933Z,14.14
2022-09-24T07:41:05.837Z,14.12
2022-09-24T07:42:05.826Z,14.14
2022-09-24T07:43:05.818Z,14.21
2022-09-24T07:44:05.800Z,14.24
2022-09-24T07:45:05.787Z,14.31
2022-09-24T07:46:05.802Z,14.37
2022-09-24T07:47:05.757Z,14.43
2022-09-24T07:48:05.761Z,14.43
2022-09-24T07:49:05.739Z,14.49
2022-09-24T07:50:05.739Z,14.54
2022-09-24T07:51:05.715Z,14.54
2022-09-24T07:52:05.701Z,14.57
2022-09-24T07:53:05.696Z,14.60
2022-09-24T07:54:05.749Z,14.62
2022-09-24T07:55:05.657Z,14.65
2022-09-24T07:56:05.646Z,14.67
2022-09-24T07:57:05.626Z,14.69
2022-09-24T07:58:05.624Z,14.71
2022-09-24T07:59:05.606Z,14.75
2022-09-24T08:00:05.586Z,14.71
2022-09-24T08:01:05.576Z,14.69
2022-09-24T08:02:05.743Z,14.69
2022-09-24T08:03:05.766Z,14.71
2022-09-24T08:04:05.640Z,14.71
2022-09-24T08:05:05.534Z,14.74
2022-09-24T08:06:05.506Z,14.80
2022-09-24T08:07:05.507Z,14.86
2022-09-24T08:08:05.495Z,14.88
2022-09-24T08:09:05.476Z,14.87
2022-09-24T08:10:05.482Z,14.86
2022-09-24T08:11:05.455Z,14.86
2022-09-24T08:12:05.493Z,14.81
2022-09-24T08:13:05.443Z,14.80
2022-09-24T08:14:05.586Z,14.81
2022-09-24T08:15:05.397Z,14.83
2022-09-24T08:16:05.439Z,14.84
2022-09-24T08:17:05.391Z,14.86
2022-09-24T08:18:05.366Z,14.84
2022-09-24T08:19:05.374Z,14.74
2022-09-24T08:20:05.326Z,14.71
2022-09-24T08:21:05.325Z,14.72
2022-09-24T08:22:05.370Z,14.83
2022-09-24T08:23:05.325Z,14.87
2022-09-24T08:24:05.295Z,14.81
2022-09-24T08:25:05.274Z,14.81
2022-09-24T08:26:05.256Z,14.86
2022-09-24T08:27:05.265Z,14.86
2022-09-24T08:28:05.234Z,14.83
2022-09-24T08:29:05.235Z,14.83
2022-09-24T08:30:05.206Z,14.83
2022-09-24T08:31:05.264Z,14.75
2022-09-24T08:32:05.197Z,14.69
2022-09-24T08:33:05.175Z,14.65
2022-09-24T08:34:05.220Z,14.62
2022-09-24T08:35:05.148Z,14.65
2022-09-24T08:36:05.164Z,14.69
2022-09-24T08:37:05.124Z,14.74
2022-09-24T08:38:05.120Z,14.78
2022-09-24T08:39:05.104Z,14.81
2022-09-24T08:40:05.076Z,14.83
2022-09-24T08:41:05.065Z,14.88
2022-09-24T08:42:05.056Z,14.81
2022-09-24T08:43:07.690Z,14.81
2022-09-24T08:44:05.075Z,14.88
2022-09-24T08:45:05.025Z,14.91
2022-09-24T08:46:05.029Z,15.01
2022-09-24T08:47:04.994Z,15.09
2022-09-24T08:48:05.037Z,15.19
2022-09-24T08:49:04.963Z,15.11
2022-09-24T08:50:04.947Z,15.09
2022-09-24T08:51:04.944Z,15.15
2022-09-24T08:52:04.941Z,15.11
2022-09-24T08:53:04.943Z,15.19
2022-09-24T08:54:04.956Z,15.23
2022-09-24T08:55:04.893Z,15.24
2022-09-24T08:56:04.873Z,15.31
2022-09-24T08:57:04.864Z,15.35
2022-09-24T08:58:04.863Z,15.36
2022-09-24T08:59:04.835Z,15.46
2022-09-24T09:00:04.822Z,15.54
2022-09-24T09:01:04.812Z,15.64
2022-09-24T09:02:04.898Z,15.74
2022-09-24T09:03:04.867Z,15.79
2022-09-24T09:04:04.907Z,15.76
2022-09-24T09:05:04.756Z,15.78
2022-09-24T09:06:04.743Z,15.78
2022-09-24T09:07:04.734Z,15.82
2022-09-24T09:08:12.779Z,15.88
2022-09-24T09:09:07.624Z,15.93
2022-09-24T09:10:04.770Z,15.97
2022-09-24T09:11:04.685Z,15.94
2022-09-24T09:12:04.655Z,15.94
2022-09-24T09:13:04.673Z,16.04
2022-09-24T09:14:04.639Z,16.15
2022-09-24T09:15:04.623Z,16.30
2022-09-24T09:16:04.658Z,16.38
2022-09-24T09:17:04.611Z,16.40
2022-09-24T09:18:04.593Z,16.41
2022-09-24T09:19:04.574Z,16.41
2022-09-24T09:20:04.560Z,16.41
2022-09-24T09:21:04.541Z,16.45
2022-09-24T09:22:04.534Z,16.49
2022-09-24T09:23:04.532Z,16.62
2022-09-24T09:24:04.503Z,16.70
2022-09-24T09:25:04.747Z,16.78
2022-09-24T09:26:04.493Z,16.85
2022-09-24T09:27:04.472Z,16.90
2022-09-24T09:28:04.470Z,17.00
2022-09-24T09:29:04.495Z,17.07
2022-09-24T09:30:04.449Z,17.00
2022-09-24T09:31:04.498Z,16.95
2022-09-24T09:32:04.444Z,16.88
2022-09-24T09:33:04.402Z,16.83
2022-09-24T09:34:04.388Z,16.71
2022-09-24T09:35:04.366Z,16.71
2022-09-24T09:36:04.352Z,16.77
2022-09-24T09:37:04.341Z,16.74
2022-09-24T09:38:04.493Z,16.75
2022-09-24T09:39:04.364Z,16.67
2022-09-24T09:40:04.303Z,16.58
2022-09-24T09:41:04.364Z,16.52
2022-09-24T09:42:04.273Z,16.44
2022-09-24T09:43:04.273Z,16.42
2022-09-24T09:44:04.243Z,16.37
2022-09-24T09:45:04.242Z,16.38
2022-09-24T09:46:04.277Z,16.38
2022-09-24T09:47:04.202Z,16.44
2022-09-24T09:48:04.209Z,16.48
2022-09-24T09:49:04.172Z,16.55
2022-09-24T09:50:04.175Z,16.58
2022-09-24T09:51:04.154Z,16.62
2022-09-24T09:52:04.143Z,16.62
2022-09-24T09:53:04.132Z,16.67
2022-09-24T09:54:04.112Z,16.65
2022-09-24T09:55:04.101Z,16.70
2022-09-24T09:56:04.105Z,16.78
2022-09-24T09:57:04.075Z,16.75
2022-09-24T09:58:04.082Z,16.75
2022-09-24T09:59:04.042Z,16.78
2022-09-24T10:00:04.056Z,16.85
2022-09-24T10:01:04.031Z,16.93
2022-09-24T10:02:04.080Z,17.07
2022-09-24T10:03:04.113Z,17.20
2022-09-24T10:04:03.992Z,17.29
2022-09-24T10:05:03.982Z,17.25
2022-09-24T10:06:03.963Z,17.17
2022-09-24T10:07:03.994Z,17.11
2022-09-24T10:08:03.942Z,17.04
2022-09-24T10:09:03.941Z,16.88
2022-09-24T10:10:03.916Z,16.90
2022-09-24T10:11:03.923Z,16.95
2022-09-24T10:12:03.882Z,16.96
2022-09-24T10:13:03.874Z,17.00
2022-09-24T10:14:03.893Z,17.06
2022-09-24T10:15:03.841Z,17.15
2022-09-24T10:16:03.937Z,17.32
2022-09-24T10:17:03.822Z,17.43
2022-09-24T10:18:03.822Z,17.35
2022-09-24T10:19:03.792Z,17.47
2022-09-24T10:20:03.772Z,17.53
2022-09-24T10:21:03.769Z,17.54
2022-09-24T10:22:03.751Z,17.63
2022-09-24T10:23:03.752Z,17.53
2022-09-24T10:24:03.722Z,17.54
2022-09-24T10:25:03.713Z,17.67
2022-09-24T10:26:03.714Z,17.54
2022-09-24T10:27:03.684Z,17.50
2022-09-24T10:28:03.692Z,17.48
2022-09-24T10:29:03.663Z,17.54
2022-09-24T10:30:03.652Z,17.53
2022-09-24T10:31:03.665Z,17.48
2022-09-24T10:32:03.636Z,17.48
2022-09-24T10:33:03.621Z,17.53
2022-09-24T10:34:03.592Z,17.50
2022-09-24T10:35:03.609Z,17.40
2022-09-24T10:36:03.574Z,17.30
2022-09-24T10:37:07.250Z,17.25
2022-09-24T10:38:04.562Z,17.14
2022-09-24T10:39:03.540Z,17.10
2022-09-24T10:40:03.520Z,17.04
2022-09-24T10:41:03.528Z,17.03
2022-09-24T10:42:03.623Z,16.98
2022-09-24T10:43:03.512Z,16.88
2022-09-24T10:44:53.765Z,16.83
2022-09-24T10:45:53.744Z,16.85
2022-09-24T10:46:53.818Z,16.75
2022-09-24T10:47:53.716Z,16.75
2022-09-24T10:48:53.724Z,16.63
2022-09-24T10:49:53.696Z,16.63
2022-09-24T10:50:53.686Z,16.65
2022-09-24T10:51:53.665Z,16.68
2022-09-24T10:52:53.663Z,16.71
2022-09-24T10:53:53.657Z,16.73
2022-09-24T10:54:53.643Z,16.75
2022-09-24T10:55:53.616Z,16.71
2022-09-24T10:56:53.606Z,16.71
2022-09-24T10:57:53.585Z,16.73
2022-09-24T10:58:53.656Z,16.75
2022-09-24T10:59:53.563Z,16.77
2022-09-24T11:00:53.576Z,16.75
2022-09-24T11:01:53.631Z,16.75
2022-09-24T11:02:53.577Z,16.77
2022-09-24T11:03:53.515Z,16.71
2022-09-24T11:04:53.503Z,16.67
2022-09-24T11:05:53.486Z,16.67
2022-09-24T11:06:53.478Z,16.65
2022-09-24T11:07:53.466Z,16.65
2022-09-24T11:08:53.456Z,16.65
2022-09-24T11:09:53.485Z,16.58
2022-09-24T11:10:53.434Z,16.52
2022-09-24T11:11:53.409Z,16.49
2022-09-24T11:12:53.397Z,16.48
2022-09-24T11:13:53.397Z,16.44
2022-09-24T11:14:53.377Z,16.41
2022-09-24T11:15:53.411Z,16.42
2022-09-24T11:16:53.345Z,16.45
2022-09-24T11:17:53.342Z,16.45
2022-09-24T11:18:53.360Z,16.50
2022-09-24T11:19:53.326Z,16.50
2022-09-24T11:20:53.285Z,16.58
2022-09-24T11:21:53.294Z,16.67
2022-09-24T11:22:53.355Z,16.73
2022-09-24T11:23:53.254Z,16.80
2022-09-24T11:24:53.263Z,16.86
2022-09-24T11:25:53.223Z,16.85
2022-09-24T11:26:53.205Z,16.89
2022-09-24T11:27:53.196Z,16.98
2022-09-24T11:28:53.186Z,17.00
2022-09-24T11:29:53.175Z,16.99
2022-09-24T11:30:53.192Z,16.99
2022-09-24T11:31:53.144Z,16.95
2022-09-24T11:32:53.136Z,16.99
2022-09-24T11:33:53.124Z,17.00
2022-09-24T11:34:53.128Z,17.00
2022-09-24T11:35:53.090Z,17.03
2022-09-24T11:36:53.077Z,17.10
2022-09-24T11:37:53.058Z,17.07
2022-09-24T11:38:53.055Z,17.14
2022-09-24T11:39:53.044Z,17.25
2022-09-24T11:40:53.126Z,17.28
2022-09-24T11:41:53.005Z,17.33
2022-09-24T11:42:53.006Z,17.44
2022-09-24T11:43:52.989Z,17.51
2022-09-24T11:44:52.985Z,17.55
2022-09-24T11:45:52.964Z,17.57
2022-09-24T11:46:53.043Z,17.53
2022-09-24T11:47:52.928Z,17.50
2022-09-24T11:48:52.916Z,17.48
2022-09-24T11:49:52.921Z,17.47
2022-09-24T11:50:52.885Z,17.47
2022-09-24T11:51:52.886Z,17.43
2022-09-24T11:52:52.871Z,17.35
2022-09-24T11:53:52.845Z,17.33
2022-09-24T11:54:52.845Z,17.25
2022-09-24T11:55:52.851Z,17.20
2022-09-24T11:56:52.813Z,17.15
2022-09-24T11:57:52.802Z,16.99
2022-09-24T11:58:52.801Z,16.89
2022-09-24T11:59:52.776Z,16.81
2022-09-24T12:00:52.758Z,16.80
2022-09-24T12:01:52.827Z,16.77
2022-09-24T12:02:52.831Z,16.77
2022-09-24T12:03:52.714Z,16.81
2022-09-24T12:04:52.723Z,16.81
2022-09-24T12:05:52.703Z,16.80
2022-09-24T12:06:52.695Z,16.77
2022-09-24T12:07:52.663Z,16.74
2022-09-24T12:08:52.659Z,16.74
2022-09-24T12:09:52.645Z,16.75
2022-09-24T12:10:52.631Z,16.75
2022-09-24T12:11:52.605Z,16.77
2022-09-24T12:12:52.646Z,16.78
2022-09-24T12:13:52.583Z,16.83
2022-09-24T12:14:52.593Z,16.86
2022-09-24T12:15:52.703Z,16.88
2022-09-24T12:16:52.545Z,16.89
2022-09-24T12:17:52.534Z,16.86
2022-09-24T12:18:52.524Z,16.85
2022-09-24T12:19:52.523Z,16.81
2022-09-24T12:20:52.502Z,16.75
2022-09-24T12:21:52.478Z,16.77
2022-09-24T12:22:52.465Z,16.86
2022-09-24T12:23:52.474Z,16.95
2022-09-24T12:24:52.452Z,16.96
2022-09-24T12:25:52.424Z,17.00
2022-09-24T12:26:52.429Z,17.03
2022-09-24T12:27:52.405Z,16.98
2022-09-24T12:28:52.427Z,16.93
2022-09-24T12:29:52.405Z,16.98
2022-09-24T12:30:52.471Z,17.07
2022-09-24T12:31:52.414Z,17.11
2022-09-24T12:32:52.335Z,17.14
2022-09-24T12:33:52.315Z,17.22
2022-09-24T12:34:52.314Z,17.29
2022-09-24T12:35:52.302Z,17.28
2022-09-24T12:36:56.585Z,17.25
2022-09-24T12:37:53.355Z,17.18
2022-09-24T12:38:52.263Z,17.13
2022-09-24T12:39:52.244Z,17.11
2022-09-24T12:40:52.342Z,17.13
2022-09-24T12:41:52.214Z,17.06
2022-09-24T12:42:52.204Z,16.95
2022-09-24T12:43:52.187Z,16.88
2022-09-24T12:44:52.191Z,16.85
2022-09-24T12:45:52.186Z,16.80
2022-09-24T12:46:52.294Z,16.78
2022-09-24T12:47:52.134Z,16.81
2022-09-24T12:48:52.123Z,16.83
2022-09-24T12:49:52.112Z,16.85
2022-09-24T12:50:52.125Z,16.89
2022-09-24T12:51:52.108Z,16.92
2022-09-24T12:52:52.073Z,16.93
2022-09-24T12:53:52.055Z,16.92
2022-09-24T12:54:52.072Z,16.89
2022-09-24T12:55:52.105Z,16.90
2022-09-24T12:56:52.022Z,16.95
2022-09-24T12:57:52.003Z,16.95
2022-09-24T12:58:52.004Z,17.00
2022-09-24T12:59:51.982Z,17.04
2022-09-24T13:00:52.013Z,17.08
2022-09-24T13:01:52.089Z,17.15
2022-09-24T13:02:52.088Z,17.20
2022-09-24T13:03:51.924Z,17.25
2022-09-24T13:04:51.913Z,17.26
2022-09-24T13:05:51.915Z,17.17
2022-09-24T13:06:51.885Z,17.15
2022-09-24T13:07:51.868Z,17.23
2022-09-24T13:08:51.864Z,17.18
2022-09-24T13:09:51.843Z,17.23
2022-09-24T13:10:51.854Z,17.15
2022-09-24T13:11:51.843Z,17.14
2022-09-24T13:12:51.804Z,17.13
2022-09-24T13:13:51.787Z,17.13
2022-09-24T13:14:51.778Z,17.15
2022-09-24T13:15:51.851Z,17.18
2022-09-24T13:16:51.753Z,17.20
2022-09-24T13:17:51.733Z,17.17
2022-09-24T13:18:51.732Z,17.23
2022-09-24T13:19:51.723Z,17.26
2022-09-24T13:20:51.715Z,17.23
2022-09-24T13:21:51.684Z,17.15
2022-09-24T13:22:51.673Z,17.17
2022-09-24T13:23:51.663Z,17.20
2022-09-24T13:24:51.651Z,17.26
2022-09-24T13:25:51.642Z,17.32
2022-09-24T13:26:51.626Z,17.30
2022-09-24T13:27:51.607Z,17.29
2022-09-24T13:28:51.608Z,17.32
2022-09-24T13:29:51.583Z,17.29
2022-09-24T13:30:51.613Z,17.28
2022-09-24T13:31:51.553Z,17.28
2022-09-24T13:32:51.555Z,17.29
2022-09-24T13:33:51.533Z,17.29
2022-09-24T13:34:51.523Z,17.29
2022-09-24T13:35:51.552Z,17.33
2022-09-24T13:36:51.503Z,17.30
2022-09-24T13:37:51.485Z,17.26
2022-09-24T13:38:51.523Z,17.26
2022-09-24T13:39:51.444Z,17.29
2022-09-24T13:40:51.480Z,17.30
2022-09-24T13:41:51.434Z,17.30
2022-09-24T13:42:51.417Z,17.25
2022-09-24T13:43:51.406Z,17.23
2022-09-24T13:44:51.383Z,17.22
2022-09-24T13:45:51.387Z,17.22
2022-09-24T13:46:51.410Z,17.17
2022-09-24T13:47:51.365Z,17.15
2022-09-24T13:48:51.335Z,17.07
2022-09-24T13:49:51.323Z,17.00
2022-09-24T13:50:51.332Z,16.93
2022-09-24T13:51:51.293Z,16.93
2022-09-24T13:52:51.282Z,16.92
2022-09-24T13:53:51.282Z,16.93
2022-09-24T13:54:51.252Z,16.96
2022-09-24T13:55:51.242Z,16.93
2022-09-24T13:56:51.234Z,16.93
2022-09-24T13:57:51.212Z,16.92
2022-09-24T13:58:51.332Z,16.92
2022-09-24T13:59:51.201Z,16.89
2022-09-24T14:00:51.173Z,16.86
2022-09-24T14:01:51.225Z,16.85
2022-09-24T14:02:51.229Z,16.78
2022-09-24T14:03:51.251Z,16.73
2022-09-24T14:04:51.112Z,16.68
2022-09-24T14:05:51.122Z,16.62
2022-09-24T14:06:51.113Z,16.59
2022-09-24T14:07:51.082Z,16.59
2022-09-24T14:08:51.065Z,16.58
2022-09-24T14:09:51.061Z,16.62
2022-09-24T14:10:51.100Z,16.65
2022-09-24T14:11:51.043Z,16.67
2022-09-24T14:12:51.012Z,16.65
2022-09-24T14:13:51.014Z,16.62
2022-09-24T14:14:50.982Z,16.59
2022-09-24T14:15:51.027Z,16.58
2022-09-24T14:16:50.976Z,16.56
2022-09-24T14:17:50.964Z,16.55
2022-09-24T14:18:50.943Z,16.55
2022-09-24T14:19:50.925Z,16.53
2022-09-24T14:20:50.902Z,16.45
2022-09-24T14:21:50.910Z,16.42
2022-09-24T14:22:50.903Z,16.41
2022-09-24T14:23:50.872Z,16.38
2022-09-24T14:24:50.852Z,16.40
2022-09-24T14:25:50.851Z,16.41
2022-09-24T14:26:50.842Z,16.41
2022-09-24T14:27:50.825Z,16.38
2022-09-24T14:28:50.812Z,16.37
2022-09-24T14:29:50.802Z,16.38
2022-09-24T14:30:50.885Z,16.40
2022-09-24T14:31:50.772Z,16.33
2022-09-24T14:32:50.742Z,16.25
2022-09-24T14:33:50.745Z,16.25
2022-09-24T14:34:50.720Z,16.25
2022-09-24T14:35:50.711Z,16.23
2022-09-24T14:36:50.703Z,16.26
2022-09-24T14:37:50.693Z,16.27
2022-09-24T14:38:53.523Z,16.27
2022-09-24T14:39:51.846Z,16.30
2022-09-24T14:40:50.673Z,16.25
2022-09-24T14:41:50.642Z,16.22
2022-09-24T14:42:50.612Z,16.20
2022-09-24T14:43:50.602Z,16.18
2022-09-24T14:44:50.582Z,16.18
2022-09-24T14:45:50.581Z,16.15
2022-09-24T14:46:50.617Z,16.14
2022-09-24T14:47:50.551Z,16.12
2022-09-24T14:48:50.531Z,16.14
2022-09-24T14:49:50.529Z,16.09
2022-09-24T14:50:50.510Z,16.03
2022-09-24T14:51:50.514Z,15.97
2022-09-24T14:52:50.471Z,15.94
2022-09-24T14:53:50.470Z,15.94
2022-09-24T14:54:50.454Z,15.96
2022-09-24T14:55:50.441Z,15.94
2022-09-24T14:56:50.431Z,15.94
2022-09-24T14:57:53.986Z,15.96
2022-09-24T14:58:51.402Z,15.99
2022-09-24T14:59:50.401Z,15.99
2022-09-24T15:00:50.372Z,16.00
2022-09-24T15:01:50.419Z,16.01
2022-09-24T15:02:50.342Z,16.00
2022-09-24T15:03:50.337Z,16.00
2022-09-24T15:04:50.353Z,16.00
2022-09-24T15:05:50.369Z,16.00
2022-09-24T15:06:50.441Z,16.00
2022-09-24T15:07:50.280Z,15.99
2022-09-24T15:08:50.261Z,15.99
2022-09-24T15:09:50.249Z,15.94
2022-09-24T15:10:50.241Z,15.93
2022-09-24T15:11:50.241Z,15.92
2022-09-24T15:12:50.211Z,15.89
2022-09-24T15:13:50.191Z,15.89
2022-09-24T15:14:50.189Z,15.94
2022-09-24T15:15:50.215Z,15.94
2022-09-24T15:16:50.197Z,15.94
2022-09-24T15:17:50.132Z,15.96
2022-09-24T15:18:50.130Z,15.97
2022-09-24T15:19:50.111Z,15.97
2022-09-24T15:20:50.101Z,15.97
2022-09-24T15:21:50.100Z,15.94
2022-09-24T15:22:50.074Z,15.96
2022-09-24T15:23:50.054Z,15.94
2022-09-24T15:24:50.049Z,15.99
2022-09-24T15:25:50.029Z,16.00
2022-09-24T15:26:50.057Z,16.00
2022-09-24T15:27:50.021Z,15.99
2022-09-24T15:28:49.997Z,15.96
2022-09-24T15:29:49.978Z,15.96
2022-09-24T15:30:50.062Z,15.96
2022-09-24T15:31:49.949Z,15.96
2022-09-24T15:32:49.948Z,15.96
2022-09-24T15:33:49.923Z,15.96
2022-09-24T15:34:49.908Z,15.96
2022-09-24T15:35:49.889Z,15.96
2022-09-24T15:36:49.881Z,15.96
2022-09-24T15:37:49.893Z,15.97
2022-09-24T15:38:49.851Z,15.97
2022-09-24T15:39:49.829Z,15.94
2022-09-24T15:40:49.873Z,15.89
2022-09-24T15:41:49.811Z,15.92
2022-09-24T15:42:49.819Z,15.92
2022-09-24T15:43:49.781Z,15.93
2022-09-24T15:44:49.779Z,15.89
2022-09-24T15:45:49.749Z,15.88
2022-09-24T15:46:49.930Z,15.89
2022-09-24T15:47:49.729Z,15.94
2022-09-24T15:48:49.726Z,16.00
2022-09-24T15:49:49.690Z,15.97
2022-09-24T15:50:49.689Z,15.96
2022-09-24T15:51:49.688Z,15.94
2022-09-24T15:52:49.658Z,15.96
2022-09-24T15:53:49.650Z,15.96
2022-09-24T15:54:49.629Z,15.93
2022-09-24T15:55:49.617Z,15.88
2022-09-24T15:56:49.632Z,15.86
2022-09-24T15:57:49.608Z,15.88
2022-09-24T15:58:49.589Z,15.88
2022-09-24T15:59:49.560Z,15.89
2022-09-24T16:00:49.551Z,15.89
2022-09-24T16:01:49.631Z,15.84
2022-09-24T16:02:49.629Z,15.85
2022-09-24T16:03:49.501Z,15.85
2022-09-24T16:04:49.503Z,15.82
2022-09-24T16:05:49.479Z,15.84
2022-09-24T16:06:49.469Z,15.82
2022-09-24T16:07:49.482Z,15.84
2022-09-24T16:08:49.448Z,15.81
2022-09-24T16:09:49.431Z,15.82
2022-09-24T16:10:49.411Z,15.81
2022-09-24T16:11:49.408Z,15.81
2022-09-24T16:12:49.379Z,15.78
2022-09-24T16:13:49.387Z,15.68
2022-09-24T16:14:49.358Z,15.64
2022-09-24T16:15:49.430Z,15.59
2022-09-24T16:16:49.379Z,15.59
2022-09-24T16:17:49.320Z,15.59
2022-09-24T16:18:49.358Z,15.57
2022-09-24T16:19:49.467Z,15.57
2022-09-24T16:20:49.297Z,15.57
2022-09-24T16:21:49.283Z,15.52
2022-09-24T16:22:49.267Z,15.52
2022-09-24T16:23:49.229Z,15.49
2022-09-24T16:24:49.228Z,15.52
2022-09-24T16:25:49.199Z,15.52
2022-09-24T16:26:49.209Z,15.51
2022-09-24T16:27:49.176Z,15.52
2022-09-24T16:28:49.169Z,15.49
2022-09-24T16:29:49.160Z,15.52
2022-09-24T16:30:49.163Z,15.51
2022-09-24T16:31:49.138Z,15.46
2022-09-24T16:32:49.108Z,15.45
2022-09-24T16:33:49.097Z,15.43
2022-09-24T16:34:49.078Z,15.42
2022-09-24T16:35:49.079Z,15.45
2022-09-24T16:36:49.067Z,15.42
2022-09-24T16:37:49.038Z,15.41
2022-09-24T16:38:49.147Z,15.38
2022-09-24T16:39:49.018Z,15.35
2022-09-24T16:40:49.051Z,15.35
2022-09-24T16:41:48.996Z,15.30
2022-09-24T16:42:48.976Z,15.27
2022-09-24T16:43:48.957Z,15.26
2022-09-24T16:44:48.951Z,15.24
2022-09-24T16:45:48.927Z,15.24
2022-09-24T16:46:48.993Z,15.24
2022-09-24T16:47:48.918Z,15.20
2022-09-24T16:48:48.905Z,15.20
2022-09-24T16:49:48.881Z,15.19
2022-09-24T16:50:48.868Z,15.19
2022-09-24T16:51:48.866Z,15.13
2022-09-24T16:52:48.838Z,15.11
2022-09-24T16:53:49.222Z,15.06
2022-09-24T16:54:48.810Z,15.05
2022-09-24T16:55:48.798Z,15.03
2022-09-24T16:56:48.787Z,15.03
2022-09-24T16:57:48.768Z,15.01
2022-09-24T16:58:48.757Z,14.98
2022-09-24T16:59:48.747Z,14.95
2022-09-24T17:00:48.727Z,14.94
2022-09-24T17:01:48.749Z,14.91
2022-09-24T17:02:48.745Z,14.88
2022-09-24T17:03:48.687Z,14.88
2022-09-24T17:04:48.851Z,14.87
2022-09-24T17:05:48.669Z,14.84
2022-09-24T17:06:48.646Z,14.83
2022-09-24T17:07:48.637Z,14.83
2022-09-24T17:08:48.626Z,14.80
2022-09-24T17:09:48.616Z,14.78
2022-09-24T17:10:51.401Z,14.78
2022-09-24T17:11:48.595Z,14.72
2022-09-24T17:12:48.570Z,14.71
2022-09-24T17:13:48.556Z,14.72
2022-09-24T17:14:48.540Z,14.68
2022-09-24T17:15:48.619Z,14.69
2022-09-24T17:16:48.526Z,14.69
2022-09-24T17:17:50.154Z,14.69
2022-09-24T17:18:48.493Z,14.65
2022-09-24T17:19:48.476Z,14.64
2022-09-24T17:20:48.457Z,14.62
2022-09-24T17:21:48.465Z,14.61
2022-09-24T17:22:48.431Z,14.61
2022-09-24T17:23:48.426Z,14.61